createdAt,value
2018-11-04T00:01:01.425Z,14.57
2018-11-04T00:03:32.798Z,14.37
2018-11-04T00:06:03.938Z,13.27
2018-11-04T00:08:35.166Z,14.20
2018-11-04T00:11:06.749Z,14.57
2018-11-04T00:13:37.941Z,13.80
2018-11-04T00:16:09.198Z,13.13
2018-11-04T00:18:40.588Z,13.93
2018-11-04T00:21:11.795Z,13.57
2018-11-04T00:23:43.202Z,12.90
2018-11-04T00:26:14.445Z,13.07
2018-11-04T00:28:45.752Z,14.63
2018-11-04T00:31:16.721Z,13.40
2018-11-04T00:33:48.053Z,12.93
2018-11-04T00:36:19.174Z,13.63
2018-11-04T00:38:50.506Z,14.67
2018-11-04T00:41:21.743Z,13.97
2018-11-04T00:43:52.987Z,12.87
2018-11-04T00:46:24.194Z,13.90
2018-11-04T00:48:55.455Z,13.60
2018-11-04T00:51:26.524Z,14.03
2018-11-04T00:53:57.799Z,13.30
2018-11-04T00:56:28.898Z,12.83
2018-11-04T00:59:00.235Z,13.30
2018-11-04T01:01:31.260Z,12.23
2018-11-04T01:04:02.348Z,12.50
2018-11-04T01:06:33.354Z,12.00
2018-11-04T01:09:05.623Z,13.53
2018-11-04T01:11:36.748Z,12.93
2018-11-04T01:14:07.724Z,12.47
2018-11-04T01:16:38.882Z,14.33
2018-11-04T01:19:10.214Z,12.37
2018-11-04T01:21:41.229Z,12.47
2018-11-04T01:24:12.413Z,13.57
2018-11-04T01:26:43.670Z,13.57
2018-11-04T01:29:15.088Z,13.10
2018-11-04T01:31:46.126Z,13.20
2018-11-04T01:34:17.309Z,12.37
2018-11-04T01:36:48.442Z,12.97
2018-11-04T01:39:19.779Z,12.93
2018-11-04T01:41:50.835Z,13.07
2018-11-04T01:44:21.975Z,12.83
2018-11-04T01:46:53.292Z,12.70
2018-11-04T01:49:24.525Z,13.10
2018-11-04T01:51:56.096Z,13.03
2018-11-04T01:54:27.335Z,13.70
2018-11-04T01:56:58.464Z,12.70
2018-11-04T01:59:29.525Z,11.93
2018-11-04T02:02:00.541Z,11.87
2018-11-04T02:04:31.715Z,12.80
2018-11-04T02:07:02.877Z,13.37
2018-11-04T02:09:34.114Z,13.73
2018-11-04T02:12:05.281Z,12.50
2018-11-04T02:14:36.379Z,12.43
2018-11-04T02:17:07.962Z,11.67
2018-11-04T02:19:39.061Z,11.67
2018-11-04T02:22:10.176Z,11.13
2018-11-04T02:24:41.327Z,11.67
2018-11-04T02:27:12.375Z,11.20
2018-11-04T02:29:43.626Z,12.43
2018-11-04T02:32:14.933Z,11.30
2018-11-04T02:34:46.133Z,11.60
2018-11-04T02:37:17.393Z,11.80
2018-11-04T02:39:48.721Z,12.30
2018-11-04T02:42:19.813Z,12.53
2018-11-04T02:44:50.905Z,12.60
2018-11-04T02:47:22.073Z,12.90
2018-11-04T02:49:53.378Z,12.07
2018-11-04T02:52:24.575Z,11.90
2018-11-04T02:54:55.790Z,12.33
2018-11-04T02:57:27.033Z,11.43
2018-11-04T02:59:58.079Z,12.50
2018-11-04T03:02:29.092Z,14.10
2018-11-04T03:05:00.035Z,12.97
2018-11-04T03:07:31.038Z,13.83
2018-11-04T03:10:02.257Z,12.50
2018-11-04T03:12:33.410Z,14.13
2018-11-04T03:15:04.495Z,13.17
2018-11-04T03:17:35.930Z,12.37
2018-11-04T03:20:07.261Z,13.13
2018-11-04T03:22:38.326Z,13.57
2018-11-04T03:25:09.540Z,14.33
2018-11-04T03:27:40.615Z,13.23
2018-11-04T03:30:11.742Z,13.87
2018-11-04T03:32:43.092Z,13.57
2018-11-04T03:35:14.201Z,13.93
2018-11-04T03:37:45.286Z,12.93
2018-11-04T03:40:16.631Z,12.83
2018-11-04T03:42:47.941Z,13.67
2018-11-04T03:45:19.188Z,13.80
2018-11-04T03:47:50.434Z,13.50
2018-11-04T03:50:21.590Z,13.33
2018-11-04T03:52:52.638Z,15.07
2018-11-04T03:55:23.821Z,13.10
2018-11-04T03:57:54.899Z,13.70
2018-11-04T04:00:26.000Z,14.40
2018-11-04T04:02:57.197Z,14.57
2018-11-04T04:05:28.401Z,13.07
2018-11-04T04:07:59.491Z,13.67
2018-11-04T04:10:30.648Z,13.60
2018-11-04T04:15:41.461Z,14.60
2018-11-04T04:18:12.615Z,14.27
2018-11-04T04:20:43.916Z,14.27
2018-11-04T04:23:15.168Z,14.10
2018-11-04T04:25:46.314Z,13.00
2018-11-04T04:28:17.397Z,14.10
2018-11-04T04:30:48.494Z,14.93
2018-11-04T04:33:19.781Z,13.80
2018-11-04T04:35:50.998Z,14.30
2018-11-04T04:38:22.325Z,14.90
2018-11-04T04:40:53.608Z,13.73
2018-11-04T04:43:24.829Z,14.37
2018-11-04T04:45:56.003Z,13.03
2018-11-04T04:48:27.207Z,14.73
2018-11-04T04:50:58.600Z,14.27
2018-11-04T04:53:29.745Z,13.67
2018-11-04T04:56:00.879Z,14.20
2018-11-04T04:58:32.122Z,13.80
2018-11-04T05:01:03.248Z,14.00
2018-11-04T05:03:34.430Z,14.43
2018-11-04T05:06:05.603Z,14.33
2018-11-04T05:08:36.767Z,14.03
2018-11-04T05:11:08.072Z,12.80
2018-11-04T05:13:39.257Z,13.83
2018-11-04T05:16:10.284Z,13.70
2018-11-04T05:18:41.610Z,13.53
2018-11-04T05:21:12.777Z,13.23
2018-11-04T05:23:43.799Z,13.50
2018-11-04T05:26:15.606Z,13.60
2018-11-04T05:28:46.756Z,14.10
2018-11-04T05:31:17.844Z,13.73
2018-11-04T05:33:49.028Z,14.40
2018-11-04T05:36:20.395Z,14.17
2018-11-04T05:38:51.738Z,15.37
2018-11-04T05:41:22.862Z,13.73
2018-11-04T05:43:54.481Z,15.67
2018-11-04T05:46:25.658Z,15.17
2018-11-04T05:48:56.820Z,14.20
2018-11-04T05:51:27.976Z,13.63
2018-11-04T05:53:59.151Z,15.93
2018-11-04T05:56:31.079Z,14.37
2018-11-04T05:59:02.959Z,14.50
2018-11-04T06:01:34.163Z,14.50
2018-11-04T06:04:05.374Z,15.80
2018-11-04T06:06:36.506Z,16.43
2018-11-04T06:09:09.791Z,15.47
2018-11-04T06:11:40.985Z,16.10
2018-11-04T06:14:12.252Z,15.47
2018-11-04T06:16:43.379Z,16.93
2018-11-04T06:19:14.636Z,14.87
2018-11-04T06:21:45.718Z,16.87
2018-11-04T06:24:16.928Z,17.27
2018-11-04T06:26:48.202Z,17.03
2018-11-04T06:29:19.418Z,16.30
2018-11-04T06:31:50.497Z,16.83
2018-11-04T06:34:21.836Z,16.83
2018-11-04T06:36:52.943Z,16.93
2018-11-04T06:39:24.249Z,17.13
2018-11-04T06:41:55.501Z,16.27
2018-11-04T06:44:26.768Z,16.43
2018-11-04T06:46:57.908Z,16.47
2018-11-04T06:49:29.059Z,17.40
2018-11-04T06:52:00.291Z,15.23
2018-11-04T06:54:32.461Z,15.83
2018-11-04T06:57:03.621Z,16.27
2018-11-04T06:59:34.826Z,15.57
2018-11-04T07:02:05.978Z,16.30
2018-11-04T07:04:37.733Z,18.13
2018-11-04T07:07:14.061Z,17.70
2018-11-04T07:09:45.169Z,16.77
2018-11-04T07:12:19.534Z,17.43
2018-11-04T07:14:50.718Z,17.93
2018-11-04T07:17:21.948Z,17.30
2018-11-04T07:19:53.361Z,16.27
2018-11-04T07:22:24.638Z,15.73
2018-11-04T07:24:56.656Z,14.50
2018-11-04T07:27:27.836Z,16.90
2018-11-04T07:29:59.209Z,16.90
2018-11-04T07:32:30.382Z,16.53
2018-11-04T07:35:01.642Z,16.30
2018-11-04T07:37:32.967Z,17.70
2018-11-04T07:40:04.027Z,17.43
2018-11-04T07:42:35.126Z,16.70
2018-11-04T07:45:06.698Z,17.50
2018-11-04T07:47:37.844Z,16.07
2018-11-04T07:50:14.235Z,17.03
2018-11-04T07:52:45.732Z,17.40
2018-11-04T07:55:16.865Z,18.57
2018-11-04T07:57:48.071Z,17.53
2018-11-04T08:00:19.227Z,17.97
2018-11-04T08:02:50.343Z,19.60
2018-11-04T08:05:21.503Z,18.50
2018-11-04T08:07:54.324Z,20.07
2018-11-04T08:10:25.469Z,22.17
2018-11-04T08:12:56.691Z,21.27
2018-11-04T08:15:28.623Z,20.97
2018-11-04T08:18:02.288Z,18.73
2018-11-04T08:20:34.742Z,18.97
2018-11-04T08:23:06.167Z,20.63
2018-11-04T08:25:37.457Z,21.17
2018-11-04T08:28:08.979Z,19.53
2018-11-04T08:30:40.844Z,19.70
2018-11-04T08:33:14.544Z,19.30
2018-11-04T08:35:51.553Z,19.13
2018-11-04T08:38:23.709Z,20.43
2018-11-04T08:40:55.753Z,19.80
2018-11-04T08:43:27.623Z,18.90
2018-11-04T08:45:58.942Z,19.60
2018-11-04T08:48:31.154Z,17.67
2018-11-04T08:51:02.583Z,19.13
2018-11-04T08:53:35.798Z,18.23
2018-11-04T08:56:08.522Z,18.93
2018-11-04T08:58:43.024Z,19.43
2018-11-04T09:01:17.589Z,19.70
2018-11-04T09:03:48.694Z,19.77
2018-11-04T09:06:20.041Z,19.33
2018-11-04T09:08:51.714Z,19.30
2018-11-04T09:11:23.427Z,18.47
2018-11-04T09:13:55.024Z,20.20
2018-11-04T09:16:26.950Z,19.37
2018-11-04T09:18:59.253Z,20.63
2018-11-04T09:21:31.036Z,19.53
2018-11-04T09:24:02.866Z,18.80
2018-11-04T09:26:35.071Z,19.07
2018-11-04T09:29:06.758Z,20.10
2018-11-04T09:31:50.026Z,19.10
2018-11-04T09:34:21.362Z,20.77
2018-11-04T09:36:52.632Z,20.53
2018-11-04T09:39:23.920Z,18.20
2018-11-04T09:41:55.102Z,20.03
2018-11-04T09:44:26.712Z,20.03
2018-11-04T09:46:59.284Z,19.43
2018-11-04T09:49:30.536Z,19.93
2018-11-04T09:52:02.501Z,20.03
2018-11-04T09:54:35.333Z,18.87
2018-11-04T09:57:07.930Z,18.87
2018-11-04T09:59:40.598Z,18.30
2018-11-04T10:02:11.942Z,19.57
2018-11-04T10:04:43.205Z,19.20
2018-11-04T10:07:14.395Z,19.67
2018-11-04T10:09:45.758Z,19.83
2018-11-04T10:12:17.301Z,19.73
2018-11-04T10:14:48.404Z,20.00
2018-11-04T10:17:19.696Z,19.27
2018-11-04T10:19:51.270Z,18.97
2018-11-04T10:22:22.182Z,18.13
2018-11-04T10:24:53.433Z,19.23
2018-11-04T10:27:24.715Z,20.83
2018-11-04T10:29:55.946Z,19.83
2018-11-04T10:32:27.028Z,19.40
2018-11-04T10:34:58.214Z,18.90
2018-11-04T10:37:29.613Z,19.20
2018-11-04T10:40:00.961Z,18.57
2018-11-04T10:42:31.989Z,18.87
2018-11-04T10:45:03.184Z,19.90
2018-11-04T10:47:43.670Z,22.20
2018-11-04T10:50:14.755Z,21.30
2018-11-04T10:52:45.860Z,19.93
2018-11-04T10:55:16.853Z,17.97
2018-11-04T10:57:48.108Z,18.60
2018-11-04T11:00:36.875Z,18.83
2018-11-04T11:03:08.412Z,23.20
2018-11-04T11:05:39.528Z,20.10
2018-11-04T11:08:13.614Z,22.03
2018-11-04T11:10:44.868Z,21.63
2018-11-04T11:13:16.163Z,20.83
2018-11-04T11:15:47.425Z,20.73
2018-11-04T11:18:19.350Z,19.73
2018-11-04T11:20:50.598Z,21.43
2018-11-04T11:23:21.824Z,20.63
2018-11-04T11:25:53.036Z,20.23
2018-11-04T11:28:24.248Z,21.00
2018-11-04T11:30:55.386Z,20.37
2018-11-04T11:33:26.574Z,21.30
2018-11-04T11:35:57.755Z,19.40
2018-11-04T11:38:29.128Z,21.20
2018-11-04T11:41:00.425Z,20.13
2018-11-04T11:43:31.588Z,21.50
2018-11-04T11:46:03.030Z,19.50
2018-11-04T11:48:34.232Z,21.57
2018-11-04T11:51:05.460Z,21.53
2018-11-04T11:53:36.734Z,20.17
2018-11-04T11:56:09.094Z,20.30
2018-11-04T11:58:40.442Z,21.43
2018-11-04T12:01:11.721Z,20.67
2018-11-04T12:03:42.950Z,21.60
2018-11-04T12:06:14.062Z,28.33
2018-11-04T12:08:45.416Z,22.70
2018-11-04T12:11:16.670Z,23.50
2018-11-04T12:13:47.956Z,21.80
2018-11-04T12:16:19.281Z,21.27
2018-11-04T12:18:50.530Z,21.53
2018-11-04T12:21:21.701Z,21.90
2018-11-04T12:23:53.037Z,20.67
2018-11-04T12:26:24.377Z,20.90
2018-11-04T12:28:58.230Z,19.67
2018-11-04T12:31:29.537Z,21.37
2018-11-04T12:34:00.883Z,21.87
2018-11-04T12:36:32.176Z,20.93
2018-11-04T12:39:06.067Z,21.73
2018-11-04T12:41:37.213Z,20.57
2018-11-04T12:44:08.495Z,21.33
2018-11-04T12:46:39.845Z,21.83
2018-11-04T12:49:11.162Z,21.57
2018-11-04T12:51:42.321Z,21.47
2018-11-04T12:54:14.002Z,20.23
2018-11-04T12:56:45.251Z,21.23
2018-11-04T12:59:16.394Z,20.00
2018-11-04T13:01:47.674Z,22.20
2018-11-04T13:04:18.951Z,21.17
2018-11-04T13:06:50.040Z,20.63
2018-11-04T13:09:21.356Z,23.73
2018-11-04T13:11:52.578Z,21.27
2018-11-04T13:14:23.859Z,23.03
2018-11-04T13:16:55.102Z,22.50
2018-11-04T13:19:26.545Z,21.50
2018-11-04T13:21:57.760Z,22.63
2018-11-04T13:24:28.934Z,24.57
2018-11-04T13:27:00.388Z,22.57
2018-11-04T13:29:31.743Z,22.37
2018-11-04T13:32:03.113Z,22.40
2018-11-04T13:34:34.438Z,23.37
2018-11-04T13:37:05.563Z,22.97
2018-11-04T13:39:37.020Z,22.60
2018-11-04T13:42:08.302Z,22.30
2018-11-04T13:44:39.628Z,20.70
2018-11-04T13:47:13.196Z,22.70
2018-11-04T13:49:44.929Z,23.23
2018-11-04T13:52:16.299Z,22.40
2018-11-04T13:54:47.853Z,21.37
2018-11-04T13:57:19.586Z,23.17
2018-11-04T13:59:50.905Z,22.80
2018-11-04T14:02:22.078Z,21.83
2018-11-04T14:04:53.391Z,20.70
2018-11-04T14:07:24.649Z,22.97
2018-11-04T14:09:55.753Z,20.60
2018-11-04T14:12:26.956Z,21.93
2018-11-04T14:14:58.315Z,20.33
2018-11-04T14:17:29.569Z,22.60
2018-11-04T14:20:01.128Z,21.50
2018-11-04T14:22:32.274Z,20.30
2018-11-04T14:25:03.330Z,21.87
2018-11-04T14:27:34.594Z,21.97
2018-11-04T14:30:06.956Z,21.33
2018-11-04T14:32:38.184Z,21.63
2018-11-04T14:35:10.527Z,21.63
2018-11-04T14:37:42.534Z,21.27
2018-11-04T14:40:15.121Z,21.47
2018-11-04T14:42:46.571Z,19.33
2018-11-04T14:45:17.813Z,20.20
2018-11-04T14:47:49.022Z,20.57
2018-11-04T14:50:20.661Z,20.70
2018-11-04T14:52:51.933Z,21.23
2018-11-04T14:55:23.168Z,20.20
2018-11-04T14:57:54.369Z,21.37
2018-11-04T15:00:25.473Z,20.97
2018-11-04T15:02:56.586Z,19.23
2018-11-04T15:05:27.848Z,18.40
2018-11-04T15:07:59.068Z,20.87
2018-11-04T15:10:30.407Z,20.07
2018-11-04T15:13:01.620Z,20.07
2018-11-04T15:15:32.883Z,20.50
2018-11-04T15:18:04.327Z,20.47
2018-11-04T15:20:35.591Z,19.63
2018-11-04T15:23:06.849Z,20.70
2018-11-04T15:25:39.363Z,21.03
2018-11-04T15:28:10.704Z,20.70
2018-11-04T15:30:42.042Z,19.63
2018-11-04T15:33:13.287Z,20.47
2018-11-04T15:35:44.552Z,19.80
2018-11-04T15:38:15.863Z,19.43
2018-11-04T15:40:47.116Z,20.73
2018-11-04T15:43:19.090Z,21.10
2018-11-04T15:45:50.419Z,19.47
2018-11-04T15:48:21.572Z,20.43
2018-11-04T15:50:53.029Z,18.40
2018-11-04T15:53:24.425Z,20.30
2018-11-04T15:55:55.755Z,19.73
2018-11-04T15:58:26.998Z,18.47
2018-11-04T16:00:58.121Z,18.57
2018-11-04T16:03:29.198Z,18.70
2018-11-04T16:06:00.467Z,19.70
2018-11-04T16:08:31.663Z,19.40
2018-11-04T16:11:02.937Z,19.63
2018-11-04T16:13:34.156Z,19.67
2018-11-04T16:16:05.521Z,21.40
2018-11-04T16:18:36.733Z,20.60
2018-11-04T16:21:07.901Z,20.00
2018-11-04T16:23:39.785Z,19.77
2018-11-04T16:26:11.112Z,19.80
2018-11-04T16:28:42.485Z,19.43
2018-11-04T16:31:13.795Z,20.27
2018-11-04T16:33:45.112Z,19.80
2018-11-04T16:36:16.337Z,19.17
2018-11-04T16:38:47.647Z,21.03
2018-11-04T16:41:18.903Z,19.43
2018-11-04T16:43:50.403Z,20.27
2018-11-04T16:46:21.593Z,19.40
2018-11-04T16:48:52.885Z,18.57
2018-11-04T16:51:24.275Z,19.00
2018-11-04T16:53:55.450Z,20.20
2018-11-04T16:56:26.763Z,20.17
2018-11-04T16:58:58.057Z,18.43
2018-11-04T17:01:29.339Z,20.17
2018-11-04T17:04:00.573Z,19.37
2018-11-04T17:06:31.937Z,20.80
2018-11-04T17:09:03.167Z,21.13
2018-11-04T17:11:34.480Z,19.57
2018-11-04T17:14:05.824Z,22.07
2018-11-04T17:16:37.201Z,20.07
2018-11-04T17:19:08.652Z,20.70
2018-11-04T17:21:40.017Z,21.57
2018-11-04T17:24:11.370Z,20.63
2018-11-04T17:26:42.620Z,18.60
2018-11-04T17:29:13.929Z,19.60
2018-11-04T17:31:45.250Z,18.70
2018-11-04T17:34:16.535Z,20.63
2018-11-04T17:36:52.323Z,19.27
2018-11-04T17:39:23.950Z,20.20
2018-11-04T17:41:54.982Z,19.30
2018-11-04T17:44:26.279Z,20.90
2018-11-04T17:46:57.581Z,20.20
2018-11-04T17:49:28.756Z,18.63
2018-11-04T17:51:59.868Z,20.77
2018-11-04T17:54:31.045Z,20.50
2018-11-04T17:57:02.354Z,19.27
2018-11-04T17:59:33.797Z,19.60
2018-11-04T18:02:07.231Z,21.43
2018-11-04T18:04:40.138Z,19.40
2018-11-04T18:07:12.320Z,20.90
2018-11-04T18:09:45.441Z,20.37
2018-11-04T18:12:16.817Z,20.87
2018-11-04T18:14:47.985Z,21.37
2018-11-04T18:17:19.047Z,20.80
2018-11-04T18:19:50.050Z,22.83
2018-11-04T18:22:21.570Z,20.33
2018-11-04T18:24:52.903Z,19.80
2018-11-04T18:27:24.322Z,20.33
2018-11-04T18:29:56.381Z,21.13
2018-11-04T18:32:27.677Z,19.00
2018-11-04T18:34:58.911Z,20.97
2018-11-04T18:37:30.060Z,22.97
2018-11-04T18:40:01.291Z,22.10
2018-11-04T18:42:32.686Z,20.77
2018-11-04T18:45:03.856Z,18.67
2018-11-04T18:47:35.583Z,19.03
2018-11-04T18:50:07.324Z,18.90
2018-11-04T18:52:38.749Z,20.47
2018-11-04T18:55:11.218Z,19.23
2018-11-04T18:57:43.529Z,19.00
2018-11-04T19:00:16.382Z,19.83
2018-11-04T19:02:48.631Z,19.60
2018-11-04T19:05:19.935Z,18.50
2018-11-04T19:07:51.249Z,18.43
2018-11-04T19:10:22.420Z,19.57
2018-11-04T19:12:54.801Z,18.63
2018-11-04T19:15:26.172Z,17.90
2018-11-04T19:17:57.629Z,16.17
2018-11-04T19:20:28.862Z,16.90
2018-11-04T19:23:00.060Z,17.50
2018-11-04T19:25:31.327Z,16.83
2018-11-04T19:28:02.884Z,16.87
2018-11-04T19:30:34.553Z,18.13
2018-11-04T19:33:05.919Z,15.83
2018-11-04T19:35:37.382Z,15.83
2018-11-04T19:38:08.580Z,15.60
2018-11-04T19:40:39.885Z,15.43
2018-11-04T19:43:13.999Z,14.93
2018-11-04T19:45:45.365Z,22.90
2018-11-04T19:48:16.715Z,24.07
2018-11-04T19:50:47.885Z,20.97
2018-11-04T19:53:19.349Z,16.77
2018-11-04T19:55:50.621Z,17.83
2018-11-04T19:58:21.947Z,15.23
2018-11-04T20:00:53.283Z,12.97
2018-11-04T20:03:24.485Z,16.03
2018-11-04T20:05:55.775Z,13.43
2018-11-04T20:08:26.970Z,13.23
2018-11-04T20:10:58.242Z,14.23
2018-11-04T20:13:46.621Z,14.07
2018-11-04T20:16:17.856Z,14.37
2018-11-04T20:19:08.549Z,14.67
2018-11-04T20:21:39.896Z,13.47
2018-11-04T20:24:28.655Z,13.23
2018-11-04T20:27:00.017Z,12.87
2018-11-04T20:29:31.310Z,13.50
2018-11-04T20:32:19.839Z,13.70
2018-11-04T20:34:52.714Z,13.33
2018-11-04T20:37:23.978Z,13.90
2018-11-04T20:40:12.398Z,12.27
2018-11-04T20:42:43.645Z,11.67
2018-11-04T20:45:14.874Z,12.13
2018-11-04T20:48:03.532Z,11.30
2018-11-04T20:50:51.948Z,13.40
2018-11-04T20:53:23.159Z,12.00
2018-11-04T20:56:11.797Z,13.00
2018-11-04T20:58:43.129Z,13.03
2018-11-04T21:01:14.482Z,12.17
2018-11-04T21:03:45.834Z,12.33
2018-11-04T21:06:17.149Z,11.97
2018-11-04T21:08:48.482Z,11.53
2018-11-04T21:11:19.789Z,11.73
2018-11-04T21:13:51.074Z,12.10
2018-11-04T21:16:22.206Z,11.57
2018-11-04T21:18:53.543Z,11.77
2018-11-04T21:21:24.795Z,11.17
2018-11-04T21:23:56.108Z,12.13
2018-11-04T21:26:27.441Z,14.50
2018-11-04T21:28:58.981Z,13.43
2018-11-04T21:31:30.026Z,13.73
2018-11-04T21:34:01.400Z,13.73
2018-11-04T21:36:32.825Z,14.43
2018-11-04T21:39:05.364Z,13.27
2018-11-04T21:41:36.862Z,13.53
2018-11-04T21:44:08.907Z,13.63
2018-11-04T21:46:40.043Z,13.13
2018-11-04T21:49:11.475Z,12.33
2018-11-04T21:51:42.822Z,12.83
2018-11-04T21:54:14.068Z,12.60
2018-11-04T21:56:45.494Z,12.87
2018-11-04T21:59:16.873Z,13.37
2018-11-04T22:01:48.142Z,12.40
2018-11-04T22:04:19.624Z,12.40
2018-11-04T22:06:51.260Z,12.90
2018-11-04T22:09:22.380Z,12.60
2018-11-04T22:11:53.833Z,12.30
2018-11-04T22:14:25.115Z,11.77
2018-11-04T22:16:56.345Z,12.20
2018-11-04T22:19:27.639Z,12.00
2018-11-04T22:21:58.828Z,12.37
2018-11-04T22:24:29.960Z,12.07
2018-11-04T22:27:01.211Z,11.50
2018-11-04T22:29:32.546Z,10.87
2018-11-04T22:32:03.877Z,11.97
2018-11-04T22:34:35.113Z,12.83
2018-11-04T22:37:06.294Z,12.03
2018-11-04T22:39:37.661Z,12.37
2018-11-04T22:42:08.969Z,13.07
2018-11-04T22:44:40.173Z,11.93
2018-11-04T22:47:11.394Z,12.13
2018-11-04T22:49:42.633Z,11.90
2018-11-04T22:52:13.915Z,12.70
2018-11-04T22:54:45.167Z,11.80
2018-11-04T22:57:16.321Z,12.13
2018-11-04T22:59:47.579Z,13.17
2018-11-04T23:02:18.841Z,11.47
2018-11-04T23:05:07.004Z,12.67
2018-11-04T23:07:38.190Z,12.20
2018-11-04T23:10:10.913Z,12.63
2018-11-04T23:12:42.305Z,12.53
2018-11-04T23:15:13.415Z,12.07
2018-11-04T23:17:44.880Z,11.43
2018-11-04T23:20:16.024Z,11.40
2018-11-04T23:22:47.342Z,11.90
2018-11-04T23:25:18.660Z,12.77
2018-11-04T23:27:50.090Z,12.20
2018-11-04T23:30:21.337Z,11.77
2018-11-04T23:32:52.457Z,11.23
2018-11-04T23:35:23.660Z,11.30
2018-11-04T23:37:54.881Z,11.90
2018-11-04T23:40:26.225Z,11.50
2018-11-04T23:42:57.360Z,10.63
2018-11-04T23:45:28.621Z,10.50
2018-11-04T23:47:59.980Z,11.70
2018-11-04T23:50:31.261Z,10.23
2018-11-04T23:53:02.581Z,11.33
2018-11-04T23:55:33.834Z,11.60
2018-11-04T23:58:05.130Z,10.23
